createdAt,value
2023-05-21T00:01:01.792Z,10
2023-05-21T00:03:32.315Z,12
2023-05-21T00:06:02.546Z,11
2023-05-21T00:08:32.676Z,13
2023-05-21T00:11:03.025Z,10
2023-05-21T00:13:33.136Z,12
2023-05-21T00:16:03.572Z,12
2023-05-21T00:18:33.895Z,11
2023-05-21T00:21:04.256Z,11
2023-05-21T00:23:34.658Z,15
2023-05-21T00:26:05.038Z,14
2023-05-21T00:28:35.079Z,13
2023-05-21T00:31:05.425Z,12
2023-05-21T00:33:35.940Z,12
2023-05-21T00:36:06.199Z,11
2023-05-21T00:38:36.602Z,11
2023-05-21T00:41:06.965Z,13
2023-05-21T00:43:37.381Z,12
2023-05-21T00:46:07.784Z,14
2023-05-21T00:48:38.142Z,14
2023-05-21T00:51:08.639Z,13
2023-05-21T00:53:38.923Z,14
2023-05-21T00:56:09.369Z,13
2023-05-21T00:58:39.686Z,13
2023-05-21T01:01:10.076Z,13
2023-05-21T01:03:40.590Z,13
2023-05-21T01:06:10.831Z,12
2023-05-21T01:08:41.241Z,13
2023-05-21T01:11:11.593Z,11
2023-05-21T01:13:42.059Z,13
2023-05-21T01:16:12.354Z,13
2023-05-21T01:18:42.827Z,13
2023-05-21T01:21:13.106Z,14
2023-05-21T01:23:43.499Z,13
2023-05-21T01:26:13.857Z,14
2023-05-21T01:28:44.267Z,13
2023-05-21T01:31:14.618Z,14
2023-05-21T01:33:45.080Z,15
2023-05-21T01:36:15.116Z,12
2023-05-21T01:38:45.527Z,11
2023-05-21T01:41:15.621Z,13
2023-05-21T01:43:45.706Z,15
2023-05-21T01:46:16.109Z,14
2023-05-21T01:48:46.455Z,15
2023-05-21T01:51:16.924Z,13
2023-05-21T01:53:47.274Z,15
2023-05-21T01:56:17.650Z,15
2023-05-21T01:58:48.061Z,14
2023-05-21T02:01:18.458Z,14
2023-05-21T02:03:48.985Z,16
2023-05-21T02:06:19.252Z,15
2023-05-21T02:08:49.394Z,14
2023-05-21T02:11:19.786Z,17
2023-05-21T02:13:49.945Z,14
2023-05-21T02:16:20.150Z,15
2023-05-21T02:18:50.846Z,15
2023-05-21T02:21:21.259Z,15
2023-05-21T02:23:51.848Z,19
2023-05-21T02:26:22.660Z,14
2023-05-21T02:28:53.023Z,17
2023-05-21T02:31:23.411Z,14
2023-05-21T02:33:53.585Z,15
2023-05-21T02:36:23.592Z,15
2023-05-21T02:38:54.314Z,16
2023-05-21T02:41:24.688Z,16
2023-05-21T02:43:55.128Z,17
2023-05-21T02:46:25.556Z,17
2023-05-21T02:48:55.665Z,19
2023-05-21T02:51:26.056Z,18
2023-05-21T02:53:56.491Z,17
2023-05-21T02:56:26.884Z,19
2023-05-21T02:58:57.307Z,16
2023-05-21T03:01:27.793Z,17
2023-05-21T03:03:58.185Z,16
2023-05-21T03:06:28.194Z,16
2023-05-21T03:08:58.660Z,20
2023-05-21T03:11:29.029Z,18
2023-05-21T03:13:59.472Z,17
2023-05-21T03:16:29.960Z,17
2023-05-21T03:19:00.388Z,20
2023-05-21T03:21:30.698Z,17
2023-05-21T03:24:00.878Z,18
2023-05-21T03:26:31.547Z,20
2023-05-21T03:29:01.979Z,19
2023-05-21T03:31:32.529Z,18
2023-05-21T03:34:02.864Z,18
2023-05-21T03:36:33.226Z,19
2023-05-21T03:39:03.704Z,17
2023-05-21T03:41:34.082Z,19
2023-05-21T03:44:04.550Z,18
2023-05-21T03:46:34.758Z,21
2023-05-21T03:49:05.573Z,17
2023-05-21T03:51:35.891Z,21
2023-05-21T03:54:06.352Z,18
2023-05-21T03:56:36.554Z,17
2023-05-21T03:59:07.139Z,22
2023-05-21T04:01:37.553Z,18
2023-05-21T04:04:08.057Z,18
2023-05-21T04:06:38.403Z,18
2023-05-21T04:09:08.847Z,18
2023-05-21T04:11:39.386Z,22
2023-05-21T04:14:09.409Z,19
2023-05-21T04:16:39.877Z,18
2023-05-21T04:19:10.295Z,18
2023-05-21T04:21:40.414Z,18
2023-05-21T04:24:10.861Z,17
2023-05-21T04:26:41.268Z,16
2023-05-21T04:29:11.918Z,16
2023-05-21T04:31:42.386Z,20
2023-05-21T04:34:13.064Z,22
2023-05-21T04:36:43.477Z,15
2023-05-21T04:39:13.938Z,17
2023-05-21T04:41:44.364Z,20
2023-05-21T04:44:14.570Z,17
2023-05-21T04:46:45.258Z,20
2023-05-21T04:49:15.679Z,23
2023-05-21T04:51:45.833Z,17
2023-05-21T04:54:16.032Z,21
2023-05-21T04:56:46.087Z,17
2023-05-21T04:59:16.271Z,20
2023-05-21T05:01:46.719Z,19
2023-05-21T05:04:16.898Z,19
2023-05-21T05:06:47.334Z,20
2023-05-21T05:09:17.512Z,15
2023-05-21T05:11:47.837Z,14
2023-05-21T05:14:18.362Z,17
2023-05-21T05:16:48.704Z,15
2023-05-21T05:19:19.560Z,15
2023-05-21T05:21:49.823Z,14
2023-05-21T05:24:20.282Z,17
2023-05-21T05:26:50.692Z,13
2023-05-21T05:29:21.053Z,15
2023-05-21T05:31:51.456Z,15
2023-05-21T05:34:21.607Z,16
2023-05-21T05:36:52.083Z,16
2023-05-21T05:39:22.175Z,17
2023-05-21T05:41:52.232Z,19
2023-05-21T05:44:22.699Z,15
2023-05-21T05:46:53.189Z,16
2023-05-21T05:49:23.841Z,14
2023-05-21T05:51:54.346Z,12
2023-05-21T05:54:24.715Z,17
2023-05-21T05:56:55.236Z,14
2023-05-21T05:59:25.575Z,13
2023-05-21T06:01:56.003Z,16
2023-05-21T06:04:26.446Z,14
2023-05-21T06:06:56.880Z,13
2023-05-21T06:09:27.164Z,16
2023-05-21T06:11:57.131Z,12
2023-05-21T06:14:27.578Z,14
2023-05-21T06:16:58.430Z,14
2023-05-21T06:19:28.727Z,15
2023-05-21T06:21:58.961Z,15
2023-05-21T06:24:29.075Z,13
2023-05-21T06:26:59.208Z,14
2023-05-21T06:29:29.666Z,14
2023-05-21T06:31:59.835Z,16
2023-05-21T06:34:30.219Z,16
2023-05-21T06:37:00.293Z,14
2023-05-21T06:39:31.131Z,15
2023-05-21T06:42:01.628Z,14
2023-05-21T06:44:32.186Z,16
2023-05-21T06:47:02.511Z,15
2023-05-21T06:49:32.964Z,12
2023-05-21T06:52:03.392Z,14
2023-05-21T06:54:33.587Z,14
2023-05-21T06:57:04.004Z,14
2023-05-21T06:59:34.598Z,14
2023-05-21T07:02:04.921Z,16
2023-05-21T07:04:35.351Z,13
2023-05-21T07:07:05.328Z,17
2023-05-21T07:09:35.956Z,13
2023-05-21T07:12:06.333Z,14
2023-05-21T07:14:36.429Z,15
2023-05-21T07:17:07.310Z,19
2023-05-21T07:19:37.847Z,14
2023-05-21T07:22:08.282Z,16
2023-05-21T07:24:38.718Z,14
2023-05-21T07:27:24.269Z,14
2023-05-21T07:29:39.833Z,14
2023-05-21T07:32:10.293Z,16
2023-05-21T07:34:40.684Z,12
2023-05-21T07:37:11.107Z,16
2023-05-21T07:39:41.264Z,14
2023-05-21T07:42:11.654Z,13
2023-05-21T07:44:42.107Z,15
2023-05-21T07:47:12.131Z,14
2023-05-21T07:49:42.387Z,14
2023-05-21T07:52:12.743Z,15
2023-05-21T07:54:42.849Z,18
2023-05-21T07:57:13.350Z,15
2023-05-21T07:59:43.662Z,14
2023-05-21T08:02:13.705Z,13
2023-05-21T08:04:44.156Z,14
2023-05-21T08:07:14.229Z,16
2023-05-21T08:09:44.395Z,14
2023-05-21T08:12:14.471Z,16
2023-05-21T08:14:44.559Z,17
2023-05-21T08:17:14.931Z,18
2023-05-21T08:19:45.445Z,18
2023-05-21T08:22:15.660Z,16
2023-05-21T08:24:46.101Z,18
2023-05-21T08:27:16.267Z,18
2023-05-21T08:29:46.848Z,16
2023-05-21T08:32:16.910Z,18
2023-05-21T08:34:47.217Z,19
2023-05-21T08:37:17.304Z,18
2023-05-21T08:39:47.979Z,18
2023-05-21T08:42:32.924Z,17
2023-05-21T08:44:48.707Z,18
2023-05-21T08:47:19.080Z,18
2023-05-21T08:49:49.075Z,19
2023-05-21T08:52:19.724Z,17
2023-05-21T08:54:50.404Z,17
2023-05-21T08:57:20.733Z,23
2023-05-21T08:59:51.373Z,20
2023-05-21T09:02:21.616Z,18
2023-05-21T09:04:51.659Z,25
2023-05-21T09:07:21.697Z,21
2023-05-21T09:09:51.941Z,18
2023-05-21T09:12:22.054Z,22
2023-05-21T09:14:52.161Z,16
2023-05-21T09:17:22.709Z,25
2023-05-21T09:19:52.793Z,24
2023-05-21T09:22:23.659Z,23
2023-05-21T09:24:54.015Z,20
2023-05-21T09:27:24.315Z,20
2023-05-21T09:29:55.120Z,25
2023-05-21T09:32:25.802Z,28
2023-05-21T09:34:56.492Z,23
2023-05-21T09:37:27.874Z,23
2023-05-21T09:39:57.986Z,26
2023-05-21T09:42:28.271Z,20
2023-05-21T09:44:58.814Z,26
2023-05-21T09:47:29.127Z,23
2023-05-21T09:49:59.217Z,19
2023-05-21T09:52:29.810Z,24
2023-05-21T09:55:00.346Z,26
2023-05-21T09:57:30.344Z,27
2023-05-21T10:00:00.958Z,22
2023-05-21T10:02:31.301Z,26
2023-05-21T10:05:01.796Z,26
2023-05-21T10:07:32.371Z,27
2023-05-21T10:10:02.642Z,29
2023-05-21T10:12:33.078Z,31
2023-05-21T10:15:03.835Z,29
2023-05-21T10:17:34.063Z,30
2023-05-21T10:20:04.617Z,30
2023-05-21T10:22:34.624Z,28
2023-05-21T10:25:05.160Z,26
2023-05-21T10:27:35.250Z,27
2023-05-21T10:30:05.600Z,44
2023-05-21T10:32:36.661Z,27
2023-05-21T10:35:06.545Z,34
2023-05-21T10:37:36.825Z,49
2023-05-21T10:40:07.479Z,45
2023-05-21T10:42:38.169Z,32
2023-05-21T10:45:08.967Z,39
2023-05-21T10:47:39.040Z,28
2023-05-21T10:50:09.489Z,30
2023-05-21T10:52:40.049Z,30
2023-05-21T10:55:10.236Z,28
2023-05-21T10:57:41.120Z,27
2023-05-21T11:00:11.934Z,26
2023-05-21T11:02:42.523Z,34
2023-05-21T11:05:12.999Z,29
2023-05-21T11:07:43.654Z,31
2023-05-21T11:10:13.957Z,26
2023-05-21T11:12:44.599Z,26
2023-05-21T11:15:15.010Z,25
2023-05-21T11:17:45.503Z,34
2023-05-21T11:20:16.011Z,26
2023-05-21T11:22:46.684Z,33
2023-05-21T11:25:16.870Z,30
2023-05-21T11:27:47.077Z,28
2023-05-21T11:30:17.307Z,28
2023-05-21T11:32:47.622Z,31
2023-05-21T11:35:18.094Z,31
2023-05-21T11:37:48.767Z,29
2023-05-21T11:40:19.056Z,30
2023-05-21T11:42:49.302Z,28
2023-05-21T11:45:19.503Z,28
2023-05-21T11:47:50.157Z,24
2023-05-21T11:50:20.368Z,29
2023-05-21T11:52:50.575Z,25
2023-05-21T11:55:21.112Z,25
2023-05-21T11:57:51.369Z,29
2023-05-21T12:00:21.391Z,30
2023-05-21T12:02:51.978Z,31
2023-05-21T12:05:22.663Z,27
2023-05-21T12:07:53.129Z,28
2023-05-21T12:10:23.570Z,32
2023-05-21T12:12:56.607Z,36
2023-05-21T12:15:24.862Z,26
2023-05-21T12:17:54.931Z,31
2023-05-21T12:20:25.705Z,32
2023-05-21T12:22:56.138Z,30
2023-05-21T12:25:26.229Z,33
2023-05-21T12:27:56.508Z,28
2023-05-21T12:30:27.190Z,31
2023-05-21T12:32:57.774Z,34
2023-05-21T12:35:27.847Z,30
2023-05-21T12:37:58.465Z,32
2023-05-21T12:40:28.967Z,32
2023-05-21T12:42:59.086Z,25
2023-05-21T12:45:29.303Z,32
2023-05-21T12:47:59.988Z,30
2023-05-21T12:50:30.275Z,29
2023-05-21T12:53:00.869Z,30
2023-05-21T12:55:31.255Z,32
2023-05-21T12:58:02.056Z,29
2023-05-21T13:00:32.484Z,34
2023-05-21T13:03:03.221Z,31
2023-05-21T13:05:34.007Z,29
2023-05-21T13:08:04.493Z,30
2023-05-21T13:10:34.756Z,34
2023-05-21T13:13:04.719Z,30
2023-05-21T13:15:34.870Z,28
2023-05-21T13:18:05.155Z,29
2023-05-21T13:20:35.361Z,35
2023-05-21T13:23:06.786Z,28
2023-05-21T13:25:36.053Z,28
2023-05-21T13:28:06.257Z,27
2023-05-21T13:30:36.643Z,25
2023-05-21T13:33:06.683Z,28
2023-05-21T13:35:37.366Z,28
2023-05-21T13:38:07.383Z,30
2023-05-21T13:40:38.969Z,32
2023-05-21T13:43:07.941Z,32
2023-05-21T13:45:38.191Z,34
2023-05-21T13:48:08.877Z,29
2023-05-21T13:50:39.053Z,31
2023-05-21T13:53:09.148Z,25
2023-05-21T13:55:40.050Z,29
2023-05-21T13:58:10.258Z,32
2023-05-21T14:00:40.684Z,29
2023-05-21T14:03:11.253Z,35
2023-05-21T14:05:41.252Z,27
2023-05-21T14:08:12.050Z,29
2023-05-21T14:10:42.844Z,30
2023-05-21T14:13:19.439Z,28
2023-05-21T14:15:43.572Z,28
2023-05-21T14:18:14.072Z,33
2023-05-21T14:20:44.780Z,29
2023-05-21T14:23:14.799Z,27
2023-05-21T14:25:45.270Z,27
2023-05-21T14:28:15.503Z,26
2023-05-21T14:30:46.080Z,26
2023-05-21T14:33:16.793Z,25
2023-05-21T14:35:47.237Z,25
2023-05-21T14:38:17.375Z,25
2023-05-21T14:40:48.115Z,28
2023-05-21T14:43:18.440Z,25
2023-05-21T14:45:48.930Z,24
2023-05-21T14:48:19.346Z,26
2023-05-21T14:50:50.083Z,24
2023-05-21T14:53:20.552Z,31
2023-05-21T14:55:51.303Z,23
2023-05-21T14:58:21.345Z,29
2023-05-21T15:00:51.518Z,25
2023-05-21T15:03:22.054Z,29
2023-05-21T15:05:52.007Z,27
2023-05-21T15:08:22.233Z,30
2023-05-21T15:10:52.475Z,27
2023-05-21T15:13:23.100Z,25
2023-05-21T15:15:53.538Z,25
2023-05-21T15:18:24.311Z,26
2023-05-21T15:20:54.396Z,25
2023-05-21T15:23:24.572Z,25
2023-05-21T15:25:54.992Z,29
2023-05-21T15:28:25.672Z,28
2023-05-21T15:30:56.412Z,24
2023-05-21T15:33:26.577Z,28
2023-05-21T15:35:56.825Z,30
2023-05-21T15:38:26.873Z,29
2023-05-21T15:40:57.346Z,26
2023-05-21T15:43:27.290Z,30
2023-05-21T15:45:57.407Z,26
2023-05-21T15:48:28.220Z,25
2023-05-21T15:50:58.294Z,24
2023-05-21T15:53:28.740Z,31
2023-05-21T15:55:59.325Z,28
2023-05-21T15:58:30.031Z,28
2023-05-21T16:01:00.270Z,29
2023-05-21T16:03:30.432Z,25
2023-05-21T16:06:00.468Z,23
2023-05-21T16:08:30.637Z,31
2023-05-21T16:11:00.752Z,32
2023-05-21T16:13:31.585Z,28
2023-05-21T16:16:01.694Z,28
2023-05-21T16:18:32.429Z,26
2023-05-21T16:21:02.906Z,26
2023-05-21T16:23:33.351Z,27
2023-05-21T16:26:03.559Z,26
2023-05-21T16:28:33.921Z,27
2023-05-21T16:31:04.128Z,29
2023-05-21T16:33:34.765Z,27
2023-05-21T16:36:04.960Z,25
2023-05-21T16:38:35.606Z,34
2023-05-21T16:41:06.164Z,32
2023-05-21T16:43:36.173Z,29
2023-05-21T16:46:06.454Z,28
2023-05-21T16:48:38.139Z,26
2023-05-21T16:51:07.260Z,27
2023-05-21T16:53:37.543Z,28
2023-05-21T16:56:08.168Z,28
2023-05-21T16:58:38.878Z,25
2023-05-21T17:01:09.420Z,24
2023-05-21T17:03:41.628Z,30
2023-05-21T17:06:09.928Z,33
2023-05-21T17:08:40.603Z,26
2023-05-21T17:11:11.393Z,26
2023-05-21T17:13:41.788Z,29
2023-05-21T17:16:11.923Z,28
2023-05-21T17:18:42.318Z,30
2023-05-21T17:21:13.201Z,27
2023-05-21T17:23:43.528Z,31
2023-05-21T17:26:14.366Z,31
2023-05-21T17:28:44.445Z,26
2023-05-21T17:31:15.229Z,24
2023-05-21T17:33:45.612Z,26
2023-05-21T17:36:15.870Z,33
2023-05-21T17:38:46.104Z,30
2023-05-21T17:41:16.915Z,25
2023-05-21T17:43:47.757Z,27
2023-05-21T17:46:18.580Z,25
2023-05-21T17:48:48.650Z,27
2023-05-21T17:51:19.346Z,26
2023-05-21T17:53:49.484Z,34
2023-05-21T17:56:20.005Z,29
2023-05-21T17:58:50.418Z,29
2023-05-21T18:01:20.822Z,34
2023-05-21T18:03:51.162Z,30
2023-05-21T18:06:21.926Z,29
2023-05-21T18:08:52.350Z,30
2023-05-21T18:11:22.555Z,31
2023-05-21T18:13:52.589Z,28
2023-05-21T18:16:22.755Z,30
2023-05-21T18:18:53.162Z,34
2023-05-21T18:21:23.832Z,33
2023-05-21T18:23:54.716Z,31
2023-05-21T18:26:25.453Z,27
2023-05-21T18:28:56.304Z,32
2023-05-21T18:31:27.189Z,32
2023-05-21T18:33:57.240Z,30
2023-05-21T18:36:27.564Z,32
2023-05-21T18:38:58.158Z,27
2023-05-21T18:41:28.402Z,32
2023-05-21T18:43:58.581Z,35
2023-05-21T18:46:29.525Z,32
2023-05-21T18:48:59.641Z,30
2023-05-21T18:51:30.110Z,30
2023-05-21T18:54:00.725Z,33
2023-05-21T18:56:30.959Z,34
2023-05-21T18:59:01.110Z,32
2023-05-21T19:01:31.352Z,38
2023-05-21T19:04:01.845Z,32
2023-05-21T19:06:32.340Z,32
2023-05-21T19:09:02.815Z,33
2023-05-21T19:11:33.431Z,30
2023-05-21T19:14:03.468Z,34
2023-05-21T19:16:33.732Z,29
2023-05-21T19:19:04.152Z,32
2023-05-21T19:21:34.897Z,32
2023-05-21T19:24:06.206Z,32
2023-05-21T19:26:35.994Z,32
2023-05-21T19:29:06.449Z,33
2023-05-21T19:31:36.620Z,30
2023-05-21T19:34:06.740Z,33
2023-05-21T19:36:51.595Z,31
2023-05-21T19:39:07.692Z,31
2023-05-21T19:41:37.751Z,30
2023-05-21T19:44:08.424Z,29
2023-05-21T19:46:39.241Z,34
2023-05-21T19:49:09.355Z,32
2023-05-21T19:51:40.083Z,30
2023-05-21T19:54:10.453Z,33
2023-05-21T19:56:40.816Z,35
2023-05-21T19:59:10.951Z,31
2023-05-21T20:01:41.249Z,34
2023-05-21T20:04:11.503Z,35
2023-05-21T20:06:41.621Z,33
2023-05-21T20:09:12.052Z,36
2023-05-21T20:11:42.348Z,35
2023-05-21T20:14:12.790Z,33
2023-05-21T20:16:43.450Z,36
2023-05-21T20:19:13.872Z,38
2023-05-21T20:21:44.267Z,42
2023-05-21T20:24:14.875Z,35
2023-05-21T20:26:45.153Z,36
2023-05-21T20:29:15.972Z,35
2023-05-21T20:31:46.612Z,36
2023-05-21T20:34:17.049Z,35
2023-05-21T20:36:47.132Z,36
2023-05-21T20:39:17.475Z,40
2023-05-21T20:41:48.335Z,33
2023-05-21T20:44:19.095Z,38
2023-05-21T20:46:49.551Z,35
2023-05-21T20:49:19.532Z,34
2023-05-21T20:51:49.993Z,33
2023-05-21T20:54:20.160Z,33
2023-05-21T20:56:50.438Z,33
2023-05-21T20:59:21.245Z,38
2023-05-21T21:01:52.079Z,44
2023-05-21T21:04:22.270Z,32
2023-05-21T21:06:52.866Z,34
2023-05-21T21:09:23.410Z,37
2023-05-21T21:11:53.721Z,41
2023-05-21T21:14:24.110Z,34
2023-05-21T21:16:54.702Z,36
2023-05-21T21:19:24.929Z,35
2023-05-21T21:21:55.536Z,39
2023-05-21T21:24:26.067Z,37
2023-05-21T21:26:56.479Z,37
2023-05-21T21:29:27.050Z,38
2023-05-21T21:31:57.898Z,40
2023-05-21T21:34:28.412Z,40
2023-05-21T21:36:59.224Z,41
2023-05-21T21:39:29.956Z,39
2023-05-21T21:42:00.102Z,40
2023-05-21T21:44:30.582Z,40
2023-05-21T21:47:00.671Z,39
2023-05-21T21:49:31.211Z,37
2023-05-21T21:52:01.358Z,52
2023-05-21T21:54:31.451Z,35
2023-05-21T21:57:01.845Z,42
2023-05-21T21:59:31.713Z,42
2023-05-21T22:02:01.931Z,39
2023-05-21T22:04:32.279Z,37
2023-05-21T22:07:02.621Z,38
2023-05-21T22:09:32.753Z,39
2023-05-21T22:12:03.389Z,42
2023-05-21T22:14:33.424Z,39
2023-05-21T22:17:03.664Z,40
2023-05-21T22:19:33.669Z,42
2023-05-21T22:22:03.727Z,36
2023-05-21T22:24:33.968Z,44
2023-05-21T22:27:04.329Z,36
2023-05-21T22:29:34.640Z,38
2023-05-21T22:32:05.263Z,42
2023-05-21T22:34:35.897Z,44
2023-05-21T22:37:06.731Z,42
2023-05-21T22:39:36.873Z,38
2023-05-21T22:42:07.173Z,37
2023-05-21T22:44:37.608Z,44
2023-05-21T22:47:07.783Z,40
2023-05-21T22:49:38.226Z,48
2023-05-21T22:52:09.076Z,44
2023-05-21T22:54:39.532Z,43
2023-05-21T22:57:10.415Z,44
2023-05-21T22:59:40.424Z,42
2023-05-21T23:02:10.557Z,43
2023-05-21T23:04:44.423Z,43
2023-05-21T23:07:11.708Z,44
2023-05-21T23:09:42.186Z,46
2023-05-21T23:12:12.649Z,45
2023-05-21T23:14:43.006Z,54
2023-05-21T23:17:13.316Z,47
2023-05-21T23:19:43.584Z,42
2023-05-21T23:22:13.709Z,48
2023-05-21T23:24:44.025Z,42
2023-05-21T23:27:14.389Z,42
2023-05-21T23:29:44.375Z,45
2023-05-21T23:32:15.176Z,48
2023-05-21T23:34:45.991Z,44
2023-05-21T23:37:16.470Z,50
2023-05-21T23:39:47.134Z,45
2023-05-21T23:42:17.351Z,49
2023-05-21T23:44:47.453Z,48
2023-05-21T23:47:18.021Z,49
2023-05-21T23:49:48.805Z,47
2023-05-21T23:52:18.900Z,48
2023-05-21T23:54:49.145Z,47
2023-05-21T23:57:19.164Z,40
2023-05-21T23:59:50.112Z,47
